MSC Paola — 9HA2581 — position and weather

sailwx.info

Track history (hours):
 
Tides and Currents Weather Stations Pressure Air Temp Water Temp Dewpoint Dewpoint Depression Visibility Wind Speed Wind Dir Waves Ship Positions

MSC Paola

Last reported at 2017-Jan-19 10:23 UTC. Time now 2017-Jan-19 21:28 UTC.
Position N 38°03' W 000°03'.

Length 243 m; draft 9.2 m.

Type: Ship (hazmat cat A). MMSI: 248931000.

Date/timePositionNaut miles runAvg speedWind from/ knotsBaromVisibWave heightAir tempDewpointWater temp
2017-Jan-19 10:23N 38°03' W 000°03'1919.3
2017-Jan-19 09:25N 37°48' W 000°17'1719.4
2017-Jan-19 08:33N 37°35' W 000°30'1818.1
2017-Jan-19 07:33N 37°22' W 000°46'1818.0
2017-Jan-19 06:34N 37°10' W 001°03'20518.1
2017-Jan-18 19:16N 36°01' W 005°03'1520.8
2017-Jan-18 18:34N 35°59' W 005°20'20816.0
2017-Jan-18 05:34N 37°23' W 009°18'2120.9
2017-Jan-18 04:33N 37°41' W 009°04'1010.1
2017-Jan-18 03:33N 37°50' W 008°58'5 5.1
2017-Jan-18 02:33N 37°53' W 008°53'3 2.8
2017-Jan-18 01:32N 37°56' W 008°51'0 0.0
2017-Jan-18 00:31N 37°56' W 008°51'0 0.0
2017-Jan-17 23:32N 37°56' W 008°51'0 0.0
2017-Jan-17 22:32N 37°56' W 008°51'0 0.0
2017-Jan-17 21:31N 37°56' W 008°51'0 0.0
2017-Jan-17 20:33N 37°56' W 008°51'0 0.0
2017-Jan-17 19:33N 37°56' W 008°51'0 0.0
2017-Jan-17 18:31N 37°56' W 008°51'0 0.0
2017-Jan-17 17:33N 37°56' W 008°51'0 0.0
2017-Jan-17 16:33N 37°56' W 008°51'0 0.0
2017-Jan-17 15:32N 37°56' W 008°51'0 0.0
2017-Jan-17 14:32N 37°56' W 008°51'0 0.0
2017-Jan-17 13:31N 37°56' W 008°51'2 2.5
2017-Jan-17 12:33N 37°54' W 008°53'7 7.5
2017-Jan-17 11:33N 37°54' W 009°02'1 1.2
2017-Jan-17 10:33N 37°55' W 009°03'1 0.9
2017-Jan-17 09:33N 37°56' W 009°03'1 1.0
2017-Jan-17 08:33N 37°57' W 009°03'1 0.9
2017-Jan-17 07:33N 37°58' W 009°03'8 7.5
2017-Jan-17 06:33N 38°04' W 009°08'10 9.5
2017-Jan-17 05:33N 38°10' W 009°18'1414.0
2017-Jan-17 04:33N 38°17' W 009°33'1515.2
2017-Jan-17 03:33N 38°23' W 009°51'1616.3
2017-Jan-17 02:33N 38°31' W 010°09'1716.5
2017-Jan-17 01:33N 38°38' W 010°28'1716.6
2017-Jan-17 00:33N 38°46' W 010°47'2116.3
2017-Jan-16 23:16N 38°55' W 011°12'  
Track history (hours):
 
Tides and Currents Weather Stations Pressure Air Temp Water Temp Dewpoint Dewpoint Depression Visibility Wind Speed Wind Dir Waves Ship Positions

MSC Paola

Last reported at 2017-Jan-19 10:23 UTC. Time now 2017-Jan-19 21:28 UTC.
Position N 38°03' W 000°03'.

Length 243 m; draft 9.2 m.

Type: Ship (hazmat cat A). MMSI: 248931000.

Date/timePositionNaut miles runAvg speedWind from/ knotsBaromVisibWave heightAir tempDewpointWater temp
2017-Jan-19 10:23N 38°03' W 000°03'1919.3
2017-Jan-19 09:25N 37°48' W 000°17'1719.4
2017-Jan-19 08:33N 37°35' W 000°30'1818.1
2017-Jan-19 07:33N 37°22' W 000°46'1818.0
2017-Jan-19 06:34N 37°10' W 001°03'20518.1
2017-Jan-18 19:16N 36°01' W 005°03'1520.8
2017-Jan-18 18:34N 35°59' W 005°20'20816.0
2017-Jan-18 05:34N 37°23' W 009°18'2120.9
2017-Jan-18 04:33N 37°41' W 009°04'1010.1
2017-Jan-18 03:33N 37°50' W 008°58'5 5.1
2017-Jan-18 02:33N 37°53' W 008°53'3 2.8
2017-Jan-18 01:32N 37°56' W 008°51'0 0.0
2017-Jan-18 00:31N 37°56' W 008°51'0 0.0
2017-Jan-17 23:32N 37°56' W 008°51'0 0.0
2017-Jan-17 22:32N 37°56' W 008°51'0 0.0
2017-Jan-17 21:31N 37°56' W 008°51'0 0.0
2017-Jan-17 20:33N 37°56' W 008°51'0 0.0
2017-Jan-17 19:33N 37°56' W 008°51'0 0.0
2017-Jan-17 18:31N 37°56' W 008°51'0 0.0
2017-Jan-17 17:33N 37°56' W 008°51'0 0.0
2017-Jan-17 16:33N 37°56' W 008°51'0 0.0
2017-Jan-17 15:32N 37°56' W 008°51'0 0.0
2017-Jan-17 14:32N 37°56' W 008°51'0 0.0
2017-Jan-17 13:31N 37°56' W 008°51'2 2.5
2017-Jan-17 12:33N 37°54' W 008°53'7 7.5
2017-Jan-17 11:33N 37°54' W 009°02'1 1.2
2017-Jan-17 10:33N 37°55' W 009°03'1 0.9
2017-Jan-17 09:33N 37°56' W 009°03'1 1.0
2017-Jan-17 08:33N 37°57' W 009°03'1 0.9
2017-Jan-17 07:33N 37°58' W 009°03'8 7.5
2017-Jan-17 06:33N 38°04' W 009°08'10 9.5
2017-Jan-17 05:33N 38°10' W 009°18'1414.0
2017-Jan-17 04:33N 38°17' W 009°33'1515.2
2017-Jan-17 03:33N 38°23' W 009°51'1616.3
2017-Jan-17 02:33N 38°31' W 010°09'1716.5
2017-Jan-17 01:33N 38°38' W 010°28'1716.6
2017-Jan-17 00:33N 38°46' W 010°47'2116.3
2017-Jan-16 23:16N 38°55' W 011°12'  

Dump ship's entire track history